createdAt,value
2018-11-06T00:00:17.698Z,99945.41
2018-11-06T00:02:46.383Z,99938.73
2018-11-06T00:05:15.777Z,99934.36
2018-11-06T00:07:44.206Z,99933.53
2018-11-06T00:10:12.118Z,99931.27
2018-11-06T00:12:39.972Z,99935.69
2018-11-06T00:15:08.266Z,99931.14
2018-11-06T00:17:36.439Z,99941.66
2018-11-06T00:20:05.110Z,99946.76
2018-11-06T00:22:32.938Z,99947.30
2018-11-06T00:25:00.687Z,99939.68
2018-11-06T00:27:28.165Z,99947.47
2018-11-06T00:29:55.607Z,99948.70
2018-11-06T00:32:23.255Z,99949.03
2018-11-06T00:34:50.711Z,99956.02
2018-11-06T00:37:18.175Z,99936.73
2018-11-06T00:39:46.539Z,99938.47
2018-11-06T00:42:14.108Z,99936.48
2018-11-06T00:44:41.511Z,99942.22
2018-11-06T00:47:08.979Z,99947.05
2018-11-06T00:49:36.651Z,99949.17
2018-11-06T00:52:04.925Z,99945.84
2018-11-06T00:54:32.587Z,99944.52
2018-11-06T00:57:00.191Z,99938.30
2018-11-06T00:59:27.768Z,99941.63
2018-11-06T01:01:55.694Z,99949.22
2018-11-06T01:04:23.129Z,99950.25
2018-11-06T01:06:50.645Z,99953.59
2018-11-06T01:09:18.075Z,99950.78
2018-11-06T01:11:45.556Z,99955.25
2018-11-06T01:14:13.029Z,99943.62
2018-11-06T01:16:41.475Z,99946.27
2018-11-06T01:19:09.488Z,99946.44
2018-11-06T01:21:37.269Z,99953.04
2018-11-06T01:24:05.499Z,99948.86
2018-11-06T01:26:32.947Z,99939.34
2018-11-06T01:29:07.399Z,99945.19
2018-11-06T01:31:34.882Z,99947.45
2018-11-06T01:34:02.392Z,99950.22
2018-11-06T01:36:30.270Z,99945.69
2018-11-06T01:38:57.706Z,99940.48
2018-11-06T01:41:25.152Z,99939.16
2018-11-06T01:43:52.696Z,99939.48
2018-11-06T01:46:20.209Z,99934.48
2018-11-06T01:48:47.593Z,99938.42
2018-11-06T01:51:15.502Z,99942.95
2018-11-06T01:53:43.201Z,99933.49
2018-11-06T01:56:10.706Z,99939.44
2018-11-06T01:58:38.401Z,99942.15
2018-11-06T02:01:05.906Z,99942.25
2018-11-06T02:03:33.438Z,99948.89
2018-11-06T02:06:01.026Z,99947.41
2018-11-06T02:08:28.808Z,99941.02
2018-11-06T02:10:56.355Z,99943.97
2018-11-06T02:13:23.864Z,99940.12
2018-11-06T02:15:51.342Z,99934.95
2018-11-06T02:18:18.902Z,99935.85
2018-11-06T02:20:46.350Z,99935.59
2018-11-06T02:23:13.762Z,99930.95
2018-11-06T02:25:41.240Z,99926.21
2018-11-06T02:28:08.710Z,99920.92
2018-11-06T02:30:36.198Z,99918.66
2018-11-06T02:33:03.712Z,99919.33
2018-11-06T02:35:31.158Z,99914.98
2018-11-06T02:37:58.562Z,99919.55
2018-11-06T02:40:26.114Z,99906.88
2018-11-06T02:42:53.621Z,99912.80
2018-11-06T02:45:21.265Z,99900.47
2018-11-06T02:47:48.909Z,99904.55
2018-11-06T02:50:16.507Z,99916.23
2018-11-06T02:52:44.784Z,99931.16
2018-11-06T02:55:12.781Z,99942.95
2018-11-06T02:57:40.848Z,99944.16
2018-11-06T03:00:12.205Z,99957.63
2018-11-06T03:02:39.729Z,99955.14
2018-11-06T03:05:08.219Z,99960.63
2018-11-06T03:07:35.838Z,99966.27
2018-11-06T03:10:03.772Z,99968.53
2018-11-06T03:12:31.277Z,99953.95
2018-11-06T03:14:58.707Z,99943.00
2018-11-06T03:17:26.303Z,99930.48
2018-11-06T03:19:53.849Z,99930.26
2018-11-06T03:22:21.371Z,99938.02
2018-11-06T03:24:48.893Z,99941.58
2018-11-06T03:27:16.525Z,99940.13
2018-11-06T03:29:44.037Z,99942.75
2018-11-06T03:32:11.771Z,99939.78
2018-11-06T03:34:39.337Z,99938.72
2018-11-06T03:37:07.094Z,99941.45
2018-11-06T03:39:34.643Z,99940.95
2018-11-06T03:42:02.419Z,99951.70
2018-11-06T03:44:29.877Z,99945.88
2018-11-06T03:46:57.323Z,99947.07
2018-11-06T03:49:24.769Z,99948.49
2018-11-06T03:51:52.297Z,99950.44
2018-11-06T03:54:19.819Z,99952.59
2018-11-06T03:56:47.303Z,99948.05
2018-11-06T03:59:14.875Z,99956.63
2018-11-06T04:01:42.457Z,99956.88
2018-11-06T04:04:09.916Z,99955.06
2018-11-06T04:06:37.395Z,99962.72
2018-11-06T04:09:08.118Z,99966.16
2018-11-06T04:11:35.685Z,99958.08
2018-11-06T04:14:03.454Z,99945.42
2018-11-06T04:19:14.558Z,99937.42
2018-11-06T04:21:42.171Z,99938.98
2018-11-06T04:24:11.226Z,99935.50
2018-11-06T04:26:39.186Z,99929.05
2018-11-06T04:29:07.668Z,99924.89
2018-11-06T04:31:36.029Z,99921.92
2018-11-06T04:34:03.589Z,99925.00
2018-11-06T04:36:31.386Z,99928.95
2018-11-06T04:38:59.427Z,99933.26
2018-11-06T04:41:27.454Z,99937.67
2018-11-06T04:43:54.901Z,99928.11
2018-11-06T04:46:22.911Z,99930.71
2018-11-06T04:48:50.904Z,99937.14
2018-11-06T04:51:18.560Z,99939.16
2018-11-06T04:53:45.981Z,99939.16
2018-11-06T04:56:13.501Z,99941.30
2018-11-06T04:58:40.930Z,99937.71
2018-11-06T05:01:08.447Z,99942.85
2018-11-06T05:03:40.478Z,99944.05
2018-11-06T05:06:07.997Z,99942.14
2018-11-06T05:08:35.393Z,99928.67
2018-11-06T05:11:02.994Z,99929.03
2018-11-06T05:13:30.497Z,99942.60
2018-11-06T05:15:58.074Z,99942.14
2018-11-06T05:18:25.520Z,99940.23
2018-11-06T05:20:52.946Z,99937.96
2018-11-06T05:23:20.374Z,99933.17
2018-11-06T05:25:47.810Z,99932.58
2018-11-06T05:28:15.318Z,99942.25
2018-11-06T05:30:42.838Z,99942.11
2018-11-06T05:33:10.540Z,99939.73
2018-11-06T05:35:37.975Z,99943.66
2018-11-06T05:38:05.701Z,99949.66
2018-11-06T05:41:03.214Z,99947.74
2018-11-06T05:43:30.624Z,99951.53
2018-11-06T05:45:58.130Z,99952.95
2018-11-06T05:48:25.558Z,99951.88
2018-11-06T05:50:52.986Z,99946.89
2018-11-06T05:53:20.638Z,99947.95
2018-11-06T05:55:48.776Z,99945.08
2018-11-06T05:58:16.412Z,99954.71
2018-11-06T06:00:44.142Z,99953.16
2018-11-06T06:03:11.658Z,99957.33
2018-11-06T06:05:39.192Z,99958.99
2018-11-06T06:08:07.118Z,99968.77
2018-11-06T06:10:35.035Z,99966.87
2018-11-06T06:13:03.103Z,99974.16
2018-11-06T06:15:30.582Z,99970.44
2018-11-06T06:17:58.090Z,99979.52
2018-11-06T06:20:25.746Z,99979.27
2018-11-06T06:22:53.249Z,99983.81
2018-11-06T06:25:21.016Z,99981.68
2018-11-06T06:27:48.655Z,99982.63
2018-11-06T06:30:16.702Z,99990.50
2018-11-06T06:32:44.315Z,99981.18
2018-11-06T06:35:11.816Z,99975.69
2018-11-06T06:37:39.249Z,99974.73
2018-11-06T06:40:09.885Z,99973.56
2018-11-06T06:42:37.460Z,99981.42
2018-11-06T06:45:07.183Z,99978.05
2018-11-06T06:47:34.627Z,99975.42
2018-11-06T06:50:02.125Z,99975.32
2018-11-06T06:52:29.580Z,99972.70
2018-11-06T06:54:57.205Z,99967.22
2018-11-06T06:57:24.698Z,99966.30
2018-11-06T06:59:52.170Z,99966.06
2018-11-06T07:02:19.763Z,99960.85
2018-11-06T07:04:47.216Z,99965.28
2018-11-06T07:07:14.790Z,99976.98
2018-11-06T07:09:42.286Z,99974.84
2018-11-06T07:12:16.342Z,99964.38
2018-11-06T07:14:43.847Z,99967.35
2018-11-06T07:17:11.397Z,99968.28
2018-11-06T07:19:38.834Z,99968.81
2018-11-06T07:22:06.352Z,99974.12
2018-11-06T07:24:33.789Z,99976.27
2018-11-06T07:27:01.215Z,99970.73
2018-11-06T07:29:28.645Z,99969.53
2018-11-06T07:31:56.092Z,99967.95
2018-11-06T07:34:23.693Z,99971.77
2018-11-06T07:36:51.244Z,99969.22
2018-11-06T07:39:18.627Z,99974.16
2018-11-06T07:41:46.641Z,99968.11
2018-11-06T07:44:14.329Z,99969.77
2018-11-06T07:46:41.770Z,99968.20
2018-11-06T07:49:09.309Z,99975.17
2018-11-06T07:51:36.779Z,99988.47
2018-11-06T07:54:04.577Z,99982.89
2018-11-06T07:56:32.242Z,99983.06
2018-11-06T07:58:59.794Z,99973.49
2018-11-06T08:01:27.378Z,99966.61
2018-11-06T08:03:55.156Z,99966.30
2018-11-06T08:06:22.740Z,99962.31
2018-11-06T08:08:50.193Z,99963.63
2018-11-06T08:11:17.638Z,99962.09
2018-11-06T08:13:45.172Z,99965.59
2018-11-06T08:16:12.614Z,99964.79
2018-11-06T08:18:40.190Z,99957.17
2018-11-06T08:21:07.733Z,99958.97
2018-11-06T08:23:35.318Z,99950.55
2018-11-06T08:26:02.858Z,99945.33
2018-11-06T08:28:30.411Z,99947.27
2018-11-06T08:30:58.137Z,99953.61
2018-11-06T08:33:25.495Z,99950.39
2018-11-06T08:35:53.011Z,99948.73
2018-11-06T08:38:20.510Z,99952.76
2018-11-06T08:40:47.983Z,99954.73
2018-11-06T08:43:15.521Z,99942.03
2018-11-06T08:45:43.115Z,99939.41
2018-11-06T08:48:10.632Z,99938.63
2018-11-06T08:50:38.082Z,99947.65
2018-11-06T08:53:05.546Z,99944.03
2018-11-06T08:55:32.953Z,99940.78
2018-11-06T08:58:00.498Z,99949.14
2018-11-06T09:00:28.028Z,99934.33
2018-11-06T09:02:55.494Z,99939.23
2018-11-06T09:05:23.085Z,99934.22
2018-11-06T09:07:50.668Z,99928.47
2018-11-06T09:10:18.113Z,99924.58
2018-11-06T09:12:45.649Z,99932.39
2018-11-06T09:15:14.180Z,99923.29
2018-11-06T09:17:41.722Z,99928.30
2018-11-06T09:20:10.830Z,99925.30
2018-11-06T09:22:38.338Z,99921.22
2018-11-06T09:25:07.368Z,99916.99
2018-11-06T09:27:34.910Z,99923.89
2018-11-06T09:30:02.489Z,99923.48
2018-11-06T09:32:30.058Z,99933.48
2018-11-06T09:34:57.618Z,99938.77
2018-11-06T09:37:25.132Z,99946.92
2018-11-06T09:39:52.534Z,99958.55
2018-11-06T09:42:20.048Z,99953.39
2018-11-06T09:44:47.672Z,99945.48
2018-11-06T09:47:15.178Z,99945.88
2018-11-06T09:49:42.724Z,99942.02
2018-11-06T09:52:10.288Z,99950.82
2018-11-06T09:54:38.090Z,99948.36
2018-11-06T09:57:05.595Z,99943.25
2018-11-06T09:59:33.078Z,99946.72
2018-11-06T10:02:00.656Z,99953.09
2018-11-06T10:04:28.092Z,99941.41
2018-11-06T10:06:55.781Z,99939.30
2018-11-06T10:09:23.039Z,99945.28
2018-11-06T10:11:50.746Z,99944.00
2018-11-06T10:14:18.237Z,99945.30
2018-11-06T10:16:45.708Z,99937.35
2018-11-06T10:19:19.947Z,99935.89
2018-11-06T10:21:47.529Z,99921.84
2018-11-06T10:24:14.953Z,99922.89
2018-11-06T10:26:42.447Z,99919.72
2018-11-06T10:29:09.873Z,99921.05
2018-11-06T10:31:37.423Z,99915.55
2018-11-06T10:34:05.031Z,99909.52
2018-11-06T10:36:32.543Z,99904.53
2018-11-06T10:39:00.093Z,99895.59
2018-11-06T10:41:27.673Z,99891.48
2018-11-06T10:43:55.121Z,99891.49
2018-11-06T10:46:22.575Z,99882.86
2018-11-06T10:48:50.076Z,99886.16
2018-11-06T10:51:17.478Z,99885.53
2018-11-06T10:53:45.045Z,99883.38
2018-11-06T10:56:12.523Z,99872.41
2018-11-06T10:58:39.923Z,99867.06
2018-11-06T11:02:12.647Z,99865.67
2018-11-06T11:04:40.116Z,99863.80
2018-11-06T11:07:07.859Z,99856.78
2018-11-06T11:09:35.292Z,99861.48
2018-11-06T11:12:02.747Z,99861.11
2018-11-06T11:14:30.416Z,99856.84
2018-11-06T11:16:57.922Z,99850.16
2018-11-06T11:19:25.378Z,99848.70
2018-11-06T11:21:52.881Z,99837.69
2018-11-06T11:24:20.282Z,99834.31
2018-11-06T11:26:47.758Z,99832.13
2018-11-06T11:29:15.150Z,99830.53
2018-11-06T11:31:42.694Z,99834.90
2018-11-06T11:34:10.096Z,99826.09
2018-11-06T11:36:37.582Z,99829.92
2018-11-06T11:39:06.895Z,99836.27
2018-11-06T11:41:34.334Z,99832.45
2018-11-06T11:44:01.755Z,99836.91
2018-11-06T11:46:29.234Z,99829.61
2018-11-06T11:48:56.766Z,99823.67
2018-11-06T11:51:24.294Z,99821.33
2018-11-06T11:53:51.956Z,99814.68
2018-11-06T11:56:19.430Z,99811.69
2018-11-06T11:58:46.897Z,99808.39
2018-11-06T12:01:14.432Z,99801.23
2018-11-06T12:03:42.249Z,99809.70
2018-11-06T12:06:09.666Z,99809.20
2018-11-06T12:08:37.160Z,99805.07
2018-11-06T12:11:04.871Z,99797.60
2018-11-06T12:13:32.429Z,99799.78
2018-11-06T12:16:00.011Z,99794.11
2018-11-06T12:18:27.471Z,99790.13
2018-11-06T12:20:55.078Z,99787.77
2018-11-06T12:23:22.613Z,99783.98
2018-11-06T12:25:50.404Z,99780.69
2018-11-06T12:28:17.535Z,99772.86
2018-11-06T12:30:45.097Z,99764.09
2018-11-06T12:33:12.699Z,99762.55
2018-11-06T12:38:14.464Z,99758.08
2018-11-06T12:40:41.921Z,99762.69
2018-11-06T12:43:09.586Z,99757.19
2018-11-06T12:45:37.140Z,99756.86
2018-11-06T12:48:05.042Z,99764.83
2018-11-06T12:50:32.545Z,99760.16
2018-11-06T12:53:00.010Z,99758.02
2018-11-06T12:55:27.513Z,99752.88
2018-11-06T12:57:55.006Z,99754.20
2018-11-06T13:00:22.591Z,99744.88
2018-11-06T13:02:50.129Z,99751.22
2018-11-06T13:05:17.607Z,99751.84
2018-11-06T13:07:45.469Z,99753.65
2018-11-06T13:10:13.812Z,99746.03
2018-11-06T13:12:41.991Z,99752.16
2018-11-06T13:15:09.458Z,99747.53
2018-11-06T13:17:37.526Z,99737.62
2018-11-06T13:20:07.054Z,99730.30
2018-11-06T13:22:34.683Z,99732.34
2018-11-06T13:25:02.261Z,99726.67
2018-11-06T13:27:29.825Z,99729.81
2018-11-06T13:29:57.322Z,99732.59
2018-11-06T13:32:24.839Z,99730.45
2018-11-06T13:34:52.239Z,99734.77
2018-11-06T13:37:19.763Z,99729.81
2018-11-06T13:39:47.473Z,99727.96
2018-11-06T13:42:15.030Z,99727.31
2018-11-06T13:44:42.936Z,99726.54
2018-11-06T13:47:10.318Z,99731.50
2018-11-06T13:49:37.738Z,99726.16
2018-11-06T13:52:05.545Z,99724.30
2018-11-06T13:54:33.009Z,99727.31
2018-11-06T13:57:00.474Z,99727.96
2018-11-06T13:59:27.970Z,99729.62
2018-11-06T14:01:55.483Z,99728.97
2018-11-06T14:04:23.075Z,99719.38
2018-11-06T14:06:50.445Z,99736.48
2018-11-06T14:09:17.924Z,99722.36
2018-11-06T14:11:45.510Z,99730.01
2018-11-06T14:14:13.226Z,99733.66
2018-11-06T14:16:40.800Z,99729.39
2018-11-06T14:19:08.242Z,99730.71
2018-11-06T14:21:35.838Z,99726.43
2018-11-06T14:24:03.402Z,99728.25
2018-11-06T14:26:30.942Z,99715.48
2018-11-06T14:28:58.429Z,99726.75
2018-11-06T14:31:25.954Z,99721.29
2018-11-06T14:33:53.394Z,99721.47
2018-11-06T14:36:20.870Z,99720.83
2018-11-06T14:38:48.363Z,99727.44
2018-11-06T14:41:15.822Z,99731.44
2018-11-06T14:43:43.254Z,99733.75
2018-11-06T14:46:10.838Z,99737.07
2018-11-06T14:48:38.410Z,99737.58
2018-11-06T14:51:05.788Z,99750.52
2018-11-06T14:53:33.266Z,99752.14
2018-11-06T14:56:00.768Z,99744.70
2018-11-06T14:58:28.278Z,99747.34
2018-11-06T15:00:55.737Z,99749.31
2018-11-06T15:03:23.187Z,99745.33
2018-11-06T15:05:50.752Z,99738.00
2018-11-06T15:08:18.222Z,99749.22
2018-11-06T15:10:45.651Z,99749.53
2018-11-06T15:13:13.107Z,99753.30
2018-11-06T15:15:40.585Z,99764.34
2018-11-06T15:18:08.170Z,99765.61
2018-11-06T15:20:35.644Z,99759.95
2018-11-06T15:23:03.094Z,99750.13
2018-11-06T15:25:30.513Z,99753.06
2018-11-06T15:27:57.941Z,99749.72
2018-11-06T15:30:25.416Z,99751.00
2018-11-06T15:32:52.890Z,99745.84
2018-11-06T15:35:21.105Z,99744.14
2018-11-06T15:37:48.630Z,99744.77
2018-11-06T15:40:17.362Z,99743.39
2018-11-06T15:42:45.333Z,99744.81
2018-11-06T15:45:14.105Z,99748.20
2018-11-06T15:47:42.370Z,99752.46
2018-11-06T15:50:11.911Z,99749.30
2018-11-06T15:52:39.843Z,99754.06
2018-11-06T15:55:07.387Z,99756.64
2018-11-06T15:57:35.225Z,99752.61
2018-11-06T16:00:03.597Z,99759.22
2018-11-06T16:02:31.017Z,99759.80
2018-11-06T16:04:59.630Z,99752.48
2018-11-06T16:07:27.151Z,99750.28
2018-11-06T16:09:54.688Z,99755.66
2018-11-06T16:12:22.197Z,99761.20
2018-11-06T16:14:49.669Z,99772.53
2018-11-06T16:17:17.147Z,99761.43
2018-11-06T16:19:44.665Z,99762.08
2018-11-06T16:22:12.172Z,99765.67
2018-11-06T16:24:39.617Z,99757.19
2018-11-06T16:27:07.225Z,99757.44
2018-11-06T16:29:34.716Z,99751.08
2018-11-06T16:32:02.207Z,99754.98
2018-11-06T16:34:29.818Z,99757.28
2018-11-06T16:36:57.445Z,99758.72
2018-11-06T16:39:24.963Z,99760.48
2018-11-06T16:41:52.626Z,99771.68
2018-11-06T16:44:20.175Z,99783.70
2018-11-06T16:46:47.618Z,99798.65
2018-11-06T16:49:15.037Z,99814.55
2018-11-06T16:51:42.500Z,99823.61
2018-11-06T16:54:09.947Z,99831.67
2018-11-06T16:56:37.667Z,99847.89
2018-11-06T16:59:05.175Z,99845.86
2018-11-06T17:01:32.739Z,99848.80
2018-11-06T17:04:00.209Z,99852.16
2018-11-06T17:06:33.274Z,99851.22
2018-11-06T17:09:00.778Z,99856.10
2018-11-06T17:11:28.227Z,99866.69
2018-11-06T17:13:55.690Z,99868.25
2018-11-06T17:16:23.179Z,99875.72
2018-11-06T17:18:50.881Z,99868.07
2018-11-06T17:21:18.570Z,99866.61
2018-11-06T17:23:46.073Z,99873.35
2018-11-06T17:26:13.577Z,99872.59
2018-11-06T17:28:41.060Z,99873.20
2018-11-06T17:31:08.668Z,99862.44
2018-11-06T17:33:36.154Z,99864.75
2018-11-06T17:36:03.686Z,99865.25
2018-11-06T17:38:31.143Z,99870.65
2018-11-06T17:40:58.826Z,99880.97
2018-11-06T17:43:26.384Z,99895.34
2018-11-06T17:45:53.934Z,99904.92
2018-11-06T17:48:21.418Z,99907.00
2018-11-06T17:50:48.835Z,99910.98
2018-11-06T17:53:16.311Z,99913.66
2018-11-06T17:55:43.805Z,99908.90
2018-11-06T17:58:11.382Z,99913.70
2018-11-06T18:00:39.007Z,99926.38
2018-11-06T18:03:06.571Z,99924.66
2018-11-06T18:05:34.085Z,99921.50
2018-11-06T18:08:01.564Z,99925.84
2018-11-06T18:10:29.082Z,99922.00
2018-11-06T18:12:56.588Z,99929.44
2018-11-06T18:15:24.303Z,99931.56
2018-11-06T18:17:51.911Z,99943.06
2018-11-06T18:20:19.269Z,99941.28
2018-11-06T18:22:46.821Z,99932.66
2018-11-06T18:25:14.940Z,99932.49
2018-11-06T18:27:42.452Z,99927.97
2018-11-06T18:30:13.217Z,99930.48
2018-11-06T18:32:40.823Z,99926.28
2018-11-06T18:35:09.638Z,99930.44
2018-11-06T18:37:37.231Z,99937.55
2018-11-06T18:40:06.606Z,99930.89
2018-11-06T18:42:34.263Z,99921.58
2018-11-06T18:45:01.760Z,99932.52
2018-11-06T18:47:32.335Z,99929.55
2018-11-06T18:49:59.752Z,99929.42
2018-11-06T18:52:27.240Z,99936.12
2018-11-06T18:54:54.705Z,99937.94
2018-11-06T18:57:22.193Z,99933.69
2018-11-06T18:59:49.716Z,99933.98
2018-11-06T19:02:17.269Z,99931.24
2018-11-06T19:04:44.695Z,99935.27
2018-11-06T19:07:12.264Z,99942.45
2018-11-06T19:09:39.775Z,99949.66
2018-11-06T19:12:07.311Z,99969.66
2018-11-06T19:14:34.897Z,99964.06
2018-11-06T19:17:02.504Z,99969.33
2018-11-06T19:19:29.885Z,99981.73
2018-11-06T19:21:57.527Z,99991.84
2018-11-06T19:24:25.016Z,99983.17
2018-11-06T19:26:52.506Z,99991.11
2018-11-06T19:29:20.061Z,99994.49
2018-11-06T19:31:47.580Z,99991.02
2018-11-06T19:34:15.151Z,99996.16
2018-11-06T19:36:42.653Z,100009.17
2018-11-06T19:39:11.641Z,100006.91
2018-11-06T19:41:39.109Z,100009.03
2018-11-06T19:44:07.308Z,100013.61
2018-11-06T19:46:34.925Z,100025.42
2018-11-06T19:49:02.496Z,100017.41
2018-11-06T19:51:29.997Z,100014.29
2018-11-06T19:53:57.572Z,100023.70
2018-11-06T19:56:25.177Z,100027.28
2018-11-06T19:58:52.710Z,100025.61
2018-11-06T20:01:20.308Z,100030.00
2018-11-06T20:03:47.847Z,100033.56
2018-11-06T20:06:15.398Z,100027.90
2018-11-06T20:08:42.839Z,100033.25
2018-11-06T20:11:10.379Z,100039.63
2018-11-06T20:13:37.999Z,100037.80
2018-11-06T20:16:05.626Z,100041.39
2018-11-06T20:18:33.158Z,100044.65
2018-11-06T20:21:00.707Z,100058.86
2018-11-06T20:23:28.278Z,100062.56
2018-11-06T20:25:55.747Z,100059.50
2018-11-06T20:28:23.253Z,100057.52
2018-11-06T20:30:50.695Z,100056.08
2018-11-06T20:33:18.222Z,100061.30
2018-11-06T20:35:45.646Z,100057.16
2018-11-06T20:38:13.164Z,100061.34
2018-11-06T20:40:40.724Z,100057.17
2018-11-06T20:43:08.241Z,100063.73
2018-11-06T20:45:35.628Z,100065.25
2018-11-06T20:48:03.022Z,100059.98
2018-11-06T20:50:30.501Z,100063.81
2018-11-06T20:52:57.955Z,100068.34
2018-11-06T20:55:25.473Z,100074.68
2018-11-06T20:57:52.934Z,100072.13
2018-11-06T21:00:22.666Z,100069.48
2018-11-06T21:02:51.319Z,100062.78
2018-11-06T21:05:18.797Z,100064.56
2018-11-06T21:07:46.844Z,100061.58
2018-11-06T21:10:15.637Z,100064.96
2018-11-06T21:12:43.170Z,100063.77
2018-11-06T21:15:11.378Z,100069.92
2018-11-06T21:17:38.864Z,100072.91
2018-11-06T21:20:07.688Z,100064.49
2018-11-06T21:22:35.113Z,100071.13
2018-11-06T21:25:02.693Z,100079.91
2018-11-06T21:27:30.127Z,100086.89
2018-11-06T21:29:58.021Z,100086.02
2018-11-06T21:32:25.522Z,100084.15
2018-11-06T21:34:53.114Z,100083.98
2018-11-06T21:37:20.865Z,100077.91
2018-11-06T21:39:48.497Z,100080.82
2018-11-06T21:42:16.232Z,100076.87
2018-11-06T21:44:43.852Z,100076.02
2018-11-06T21:47:11.513Z,100077.91
2018-11-06T21:49:39.017Z,100077.09
2018-11-06T21:52:06.619Z,100070.39
2018-11-06T21:54:34.151Z,100073.84
2018-11-06T21:57:01.967Z,100065.23
2018-11-06T21:59:29.366Z,100067.37
2018-11-06T22:01:56.951Z,100065.36
2018-11-06T22:04:24.455Z,100062.73
2018-11-06T22:06:52.211Z,100065.64
2018-11-06T22:09:19.701Z,100062.55
2018-11-06T22:11:47.297Z,100061.86
2018-11-06T22:14:14.782Z,100057.52
2018-11-06T22:16:42.247Z,100064.84
2018-11-06T22:19:09.909Z,100059.47
2018-11-06T22:21:37.581Z,100051.91
2018-11-06T22:24:05.057Z,100067.37
2018-11-06T22:26:32.790Z,100077.61
2018-11-06T22:29:00.414Z,100088.95
2018-11-06T22:31:28.035Z,100090.78
2018-11-06T22:33:55.439Z,100089.34
2018-11-06T22:36:22.921Z,100094.67
2018-11-06T22:38:50.314Z,100087.98
2018-11-06T22:41:17.860Z,100086.88
2018-11-06T22:43:45.299Z,100089.11
2018-11-06T22:46:12.786Z,100088.58
2018-11-06T22:48:40.770Z,100084.72
2018-11-06T22:51:08.252Z,100093.97
2018-11-06T22:53:35.722Z,100094.59
2018-11-06T22:56:03.420Z,100098.83
2018-11-06T22:58:30.907Z,100098.48
2018-11-06T23:01:04.387Z,100112.48
2018-11-06T23:03:32.012Z,100110.61
2018-11-06T23:05:59.756Z,100111.97
2018-11-06T23:08:28.279Z,100120.72
2018-11-06T23:10:56.102Z,100124.52
2018-11-06T23:13:23.874Z,100125.61
2018-11-06T23:15:51.374Z,100125.73
2018-11-06T23:18:18.814Z,100120.95
2018-11-06T23:20:46.337Z,100120.25
2018-11-06T23:23:13.934Z,100117.41
2018-11-06T23:25:41.900Z,100120.62
2018-11-06T23:28:09.372Z,100120.75
2018-11-06T23:30:37.097Z,100122.65
2018-11-06T23:33:05.006Z,100115.59
2018-11-06T23:35:32.498Z,100116.05
2018-11-06T23:37:59.946Z,100127.63
2018-11-06T23:40:27.418Z,100121.17
2018-11-06T23:42:54.826Z,100121.41
2018-11-06T23:45:22.276Z,100116.13
2018-11-06T23:47:49.732Z,100117.67
2018-11-06T23:50:17.268Z,100116.58
2018-11-06T23:52:44.814Z,100117.48
2018-11-06T23:55:12.360Z,100121.52
2018-11-06T23:57:39.705Z,100124.13
